createdAt,value
2023-05-18T04:02:18.566Z,2.20
2023-05-18T04:06:30.252Z,2.28
2023-05-18T04:10:43.094Z,2.35
2023-05-18T04:14:54.731Z,3.08
2023-05-18T04:19:08.230Z,2.58
2023-05-18T04:23:20.672Z,2.35
2023-05-18T04:27:32.254Z,2.00
2023-05-18T04:31:47.369Z,2.80
2023-05-18T04:35:59.685Z,2.30
2023-05-18T04:40:16.955Z,2.47
2023-05-18T04:44:31.557Z,2.30
2023-05-18T04:48:44.895Z,2.38
2023-05-18T04:52:57.966Z,2.72
2023-05-18T04:57:10.836Z,2.47
2023-05-18T05:01:23.853Z,2.30
2023-05-18T05:05:35.528Z,2.67
2023-05-18T05:09:47.105Z,2.42
2023-05-18T05:13:58.669Z,2.40
2023-05-18T05:18:10.542Z,2.83
2023-05-18T05:22:22.856Z,2.22
2023-05-18T05:26:35.511Z,2.25
2023-05-18T05:30:47.128Z,2.38
2023-05-18T05:34:58.756Z,2.60
2023-05-18T05:39:11.716Z,2.20
2023-05-18T05:43:23.728Z,2.03
2023-05-18T05:47:35.688Z,2.42
2023-05-18T05:51:47.458Z,2.08
2023-05-18T05:55:59.136Z,2.97
2023-05-18T06:00:12.964Z,2.20
2023-05-18T06:04:36.568Z,2.45
2023-05-18T06:08:48.484Z,2.25
2023-05-18T06:13:02.476Z,2.33
2023-05-18T06:17:21.672Z,1.92
2023-05-18T06:21:33.658Z,2.15
2023-05-18T06:25:47.873Z,2.17
2023-05-18T06:30:17.712Z,2.13
2023-05-18T06:34:50.647Z,2.40
2023-05-18T06:39:02.365Z,2.50
2023-05-18T06:43:14.348Z,2.35
2023-05-18T06:47:48.630Z,2.45
2023-05-18T06:52:00.932Z,2.40
2023-05-18T06:56:13.144Z,2.13
2023-05-18T07:00:28.463Z,2.30
2023-05-18T07:04:41.421Z,2.58
2023-05-18T07:08:52.978Z,2.55
2023-05-18T07:13:04.524Z,2.40
2023-05-18T07:17:16.182Z,2.58
2023-05-18T07:21:27.783Z,2.67
2023-05-18T07:25:39.722Z,2.22
2023-05-18T07:29:51.297Z,3.08
2023-05-18T07:34:02.855Z,3.08
2023-05-18T07:38:14.484Z,2.40
2023-05-18T07:42:26.098Z,2.53
2023-05-18T07:46:37.726Z,2.63
2023-05-18T07:50:49.298Z,2.72
2023-05-18T07:55:01.607Z,2.40
2023-05-18T07:59:13.270Z,2.63
2023-05-18T08:03:24.978Z,2.60
2023-05-18T08:07:36.786Z,2.70
2023-05-18T08:11:48.341Z,2.53
2023-05-18T08:16:11.314Z,2.55
2023-05-18T08:20:25.545Z,2.45
2023-05-18T08:24:37.083Z,2.50
2023-05-18T08:28:51.577Z,2.15
2023-05-18T08:33:03.261Z,2.40
2023-05-18T08:37:14.916Z,2.65
2023-05-18T08:41:30.737Z,2.40
2023-05-18T08:45:49.277Z,2.25
2023-05-18T08:50:02.526Z,2.05
2023-05-18T08:54:21.046Z,1.90
2023-05-18T08:58:36.125Z,2.30
2023-05-18T09:02:49.130Z,2.05
2023-05-18T09:07:02.939Z,1.98
2023-05-18T09:11:15.863Z,2.20
2023-05-18T09:15:28.006Z,2.15
2023-05-18T09:19:39.664Z,2.10
2023-05-18T09:23:51.592Z,2.15
2023-05-18T09:28:04.352Z,2.10
2023-05-18T09:32:16.729Z,1.98
2023-05-18T09:36:29.549Z,2.30
2023-05-18T09:40:45.522Z,2.50
2023-05-18T09:44:57.072Z,2.00
2023-05-18T09:49:09.869Z,2.42
2023-05-18T09:53:21.489Z,2.65
2023-05-18T09:57:38.097Z,2.28
2023-05-18T10:02:05.719Z,2.08
2023-05-18T10:06:19.922Z,2.20
2023-05-18T10:10:31.867Z,2.15
2023-05-18T10:14:45.968Z,2.20
2023-05-18T10:18:57.777Z,2.47
2023-05-18T10:23:11.047Z,2.10
2023-05-18T10:27:26.700Z,2.10
2023-05-18T10:31:39.009Z,2.38
2023-05-18T10:35:51.034Z,2.35
2023-05-18T10:40:04.021Z,2.63
2023-05-18T10:44:16.109Z,2.42
2023-05-18T10:48:29.554Z,2.85
2023-05-18T10:52:41.668Z,2.70
2023-05-18T10:56:53.880Z,2.88
2023-05-18T11:01:09.201Z,3.15
2023-05-18T11:05:25.661Z,2.88
2023-05-18T11:09:37.436Z,3.20
2023-05-18T11:13:50.606Z,2.35
2023-05-18T11:18:15.466Z,2.70
2023-05-18T11:22:46.373Z,2.67
2023-05-18T11:27:16.216Z,2.78
2023-05-18T11:31:44.346Z,2.95
2023-05-18T11:36:06.984Z,3.10
2023-05-18T11:40:50.715Z,3.05
2023-05-18T11:45:13.078Z,3.08
2023-05-18T11:49:33.574Z,2.95
2023-05-18T11:53:45.252Z,2.92
2023-05-18T11:57:56.851Z,2.70
2023-05-18T12:02:11.728Z,2.95
2023-05-18T12:06:24.417Z,3.38
2023-05-18T12:10:37.195Z,3.10
2023-05-18T12:14:57.840Z,3.30
2023-05-18T12:19:09.415Z,2.80
2023-05-18T12:23:21.106Z,2.70
2023-05-18T12:27:39.668Z,3.05
2023-05-18T12:31:51.302Z,3.03
2023-05-18T12:36:02.917Z,2.88
2023-05-18T12:40:17.448Z,3.00
2023-05-18T12:44:29.046Z,2.50
2023-05-18T12:48:49.434Z,2.88
2023-05-18T12:53:01.838Z,3.50
2023-05-18T12:57:13.441Z,3.10
2023-05-18T13:01:25.788Z,2.88
2023-05-18T13:05:37.875Z,2.50
2023-05-18T13:09:49.760Z,2.75
2023-05-18T13:14:04.406Z,2.75
2023-05-18T13:18:16.908Z,2.55
2023-05-18T13:22:28.749Z,2.90
2023-05-18T13:26:40.882Z,3.25
2023-05-18T13:30:52.457Z,2.40
2023-05-18T13:35:05.388Z,2.33
2023-05-18T13:39:17.725Z,3.28
2023-05-18T13:43:29.276Z,2.35
2023-05-18T13:47:41.510Z,2.28
2023-05-18T13:51:53.290Z,3.47
2023-05-18T13:56:05.180Z,2.45
2023-05-18T14:00:17.431Z,2.33
2023-05-18T14:04:29.106Z,2.50
2023-05-18T14:08:40.686Z,2.45
2023-05-18T14:12:52.214Z,2.67
2023-05-18T14:17:04.098Z,2.50
2023-05-18T14:21:15.998Z,2.47
2023-05-18T14:25:27.581Z,2.72
2023-05-18T14:29:39.194Z,2.40
2023-05-18T14:33:51.101Z,2.50
2023-05-18T14:38:02.940Z,2.30
2023-05-18T14:42:14.515Z,2.75
2023-05-18T14:46:26.091Z,2.50
2023-05-18T14:50:38.763Z,2.30
2023-05-18T14:54:50.674Z,2.40
2023-05-18T14:59:02.256Z,2.60
2023-05-18T15:03:13.947Z,2.45
2023-05-18T15:07:25.596Z,2.40
2023-05-18T15:11:37.196Z,2.40
2023-05-18T15:15:49.243Z,2.20
2023-05-18T15:20:01.515Z,2.25
2023-05-18T15:24:13.147Z,2.15
2023-05-18T15:28:25.349Z,2.72
2023-05-18T15:32:43.155Z,2.30
2023-05-18T15:36:54.802Z,2.55
2023-05-18T15:41:06.362Z,2.30
2023-05-18T15:45:17.900Z,2.60
2023-05-18T15:49:29.534Z,2.45
2023-05-18T15:53:41.185Z,2.50
2023-05-18T15:57:52.725Z,2.50
2023-05-18T16:02:04.396Z,2.10
2023-05-18T16:06:17.354Z,2.38
2023-05-18T16:10:29.094Z,2.30
2023-05-18T16:14:40.830Z,2.75
2023-05-18T16:18:52.691Z,2.15
2023-05-18T16:23:04.372Z,2.58
2023-05-18T16:27:15.953Z,2.40
2023-05-18T16:31:27.563Z,2.40
2023-05-18T16:35:39.183Z,2.42
2023-05-18T16:39:50.765Z,2.45
2023-05-18T16:44:02.297Z,2.72
2023-05-18T16:48:14.052Z,2.25
2023-05-18T16:52:25.715Z,2.25
2023-05-18T16:56:37.337Z,2.60
2023-05-18T17:00:48.870Z,2.70
2023-05-18T17:05:00.403Z,2.33
2023-05-18T17:09:13.237Z,2.20
2023-05-18T17:13:24.767Z,2.53
2023-05-18T17:17:36.333Z,2.03
2023-05-18T17:21:49.307Z,2.55
2023-05-18T17:26:06.685Z,2.42
2023-05-18T17:30:18.519Z,3.00
2023-05-18T17:34:32.894Z,2.15
2023-05-18T17:38:45.039Z,2.85
2023-05-18T17:42:56.684Z,2.40
2023-05-18T17:47:08.259Z,2.50
2023-05-18T17:51:19.922Z,2.55
2023-05-18T17:55:31.793Z,3.33
2023-05-18T17:59:43.335Z,2.80
2023-05-18T18:03:55.854Z,2.20
2023-05-18T18:08:07.467Z,2.90
2023-05-18T18:12:19.153Z,2.75
2023-05-18T18:16:30.847Z,2.40
2023-05-18T18:20:42.597Z,2.50
2023-05-18T18:24:54.175Z,2.63
2023-05-18T18:29:06.080Z,2.22
2023-05-18T18:33:17.803Z,2.50
2023-05-18T18:37:29.347Z,2.60
2023-05-18T18:41:42.452Z,2.40
2023-05-18T18:45:55.423Z,2.50
2023-05-18T18:50:07.477Z,2.45
2023-05-18T18:54:19.026Z,2.88
2023-05-18T18:58:30.596Z,2.58
2023-05-18T19:02:42.212Z,2.70
2023-05-18T19:12:51.013Z,4.00
2023-05-18T19:17:02.609Z,3.33
2023-05-18T19:21:14.283Z,2.85
2023-05-18T19:25:26.403Z,3.25
2023-05-18T19:29:38.184Z,3.30
2023-05-18T19:33:50.181Z,3.38
2023-05-18T19:38:02.292Z,3.78
2023-05-18T19:42:13.955Z,4.03
2023-05-18T19:46:25.612Z,4.13
2023-05-18T19:50:37.267Z,4.85
2023-05-18T19:54:48.825Z,4.78
2023-05-18T19:59:00.374Z,4.60
2023-05-18T20:03:11.986Z,3.90
2023-05-18T20:07:23.929Z,3.88
2023-05-18T20:11:35.523Z,3.97
2023-05-18T20:15:47.066Z,3.88
2023-05-18T20:19:59.997Z,3.80
2023-05-18T20:24:11.762Z,3.83
2023-05-18T20:28:23.342Z,3.45
2023-05-18T20:32:35.256Z,3.55
2023-05-18T20:36:46.803Z,3.35
2023-05-18T20:40:59.086Z,3.50
2023-05-18T20:45:10.801Z,3.35
2023-05-18T20:49:22.400Z,3.38
2023-05-18T20:53:34.036Z,3.28
2023-05-18T20:57:49.041Z,3.20
2023-05-18T21:02:00.738Z,3.33
2023-05-18T21:06:15.197Z,3.47
2023-05-18T21:10:26.803Z,2.75
2023-05-18T21:14:38.382Z,3.30
2023-05-18T21:18:49.952Z,3.05
2023-05-18T21:23:01.563Z,3.35
2023-05-18T21:27:13.162Z,3.45
